sensor_id;sensor_type;location;lat;lon;timestamp;pressure;altitude;pressure_sealevel;temperature;humidity
63715;BME280;49858;48.956;9.076;2023-05-29T00:01:40;98764.16;;;20.04;83.31
63715;BME280;49858;48.956;9.076;2023-05-29T00:04:07;98773.22;;;19.78;84.61
63715;BME280;49858;48.956;9.076;2023-05-29T00:06:36;98772.66;;;19.90;83.40
63715;BME280;49858;48.956;9.076;2023-05-29T00:09:05;98766.88;;;19.36;86.56
63715;BME280;49858;48.956;9.076;2023-05-29T00:11:33;98773.56;;;19.42;87.21
63715;BME280;49858;48.956;9.076;2023-05-29T00:14:00;98761.81;;;19.65;85.42
63715;BME280;49858;48.956;9.076;2023-05-29T00:16:29;98762.66;;;19.21;88.23
63715;BME280;49858;48.956;9.076;2023-05-29T00:18:57;98765.81;;;19.64;85.74
63715;BME280;49858;48.956;9.076;2023-05-29T00:21:25;98764.09;;;19.32;87.81
63715;BME280;49858;48.956;9.076;2023-05-29T00:23:53;98770.22;;;19.61;85.85
63715;BME280;49858;48.956;9.076;2023-05-29T00:26:22;98770.59;;;19.22;88.01
63715;BME280;49858;48.956;9.076;2023-05-29T00:28:53;98772.09;;;18.82;92.05
63715;BME280;49858;48.956;9.076;2023-05-29T00:31:21;98764.59;;;18.79;91.08
63715;BME280;49858;48.956;9.076;2023-05-29T00:33:49;98771.44;;;18.63;93.68
63715;BME280;49858;48.956;9.076;2023-05-29T00:36:17;98766.44;;;18.33;96.29
63715;BME280;49858;48.956;9.076;2023-05-29T00:38:45;98768.03;;;18.34;96.21
63715;BME280;49858;48.956;9.076;2023-05-29T00:41:14;98757.97;;;18.51;96.55
63715;BME280;49858;48.956;9.076;2023-05-29T00:43:43;98763.38;;;18.10;98.91
63715;BME280;49858;48.956;9.076;2023-05-29T00:46:13;98762.75;;;17.74;100.00
63715;BME280;49858;48.956;9.076;2023-05-29T00:48:41;98759.63;;;17.50;100.00
63715;BME280;49858;48.956;9.076;2023-05-29T00:51:10;98758.91;;;17.00;100.00
63715;BME280;49858;48.956;9.076;2023-05-29T00:53:40;98760.47;;;17.19;100.00
63715;BME280;49858;48.956;9.076;2023-05-29T00:56:10;98757.25;;;17.42;100.00
63715;BME280;49858;48.956;9.076;2023-05-29T00:58:40;98762.41;;;17.47;100.00
63715;BME280;49858;48.956;9.076;2023-05-29T01:01:10;98759.28;;;16.73;100.00
63715;BME280;49858;48.956;9.076;2023-05-29T01:03:39;98762.06;;;17.13;100.00
63715;BME280;49858;48.956;9.076;2023-05-29T01:06:07;98752.13;;;17.19;100.00
63715;BME280;49858;48.956;9.076;2023-05-29T01:08:37;98752.44;;;17.56;100.00
63715;BME280;49858;48.956;9.076;2023-05-29T01:11:09;98748.56;;;17.04;100.00
63715;BME280;49858;48.956;9.076;2023-05-29T01:13:41;98744.56;;;17.23;100.00
63715;BME280;49858;48.956;9.076;2023-05-29T01:16:16;98742.56;;;17.37;100.00
63715;BME280;49858;48.956;9.076;2023-05-29T01:18:53;98748.53;;;17.29;100.00
63715;BME280;49858;48.956;9.076;2023-05-29T01:21:27;98743.75;;;17.29;100.00
63715;BME280;49858;48.956;9.076;2023-05-29T01:24:13;98753.59;;;17.70;100.00
63715;BME280;49858;48.956;9.076;2023-05-29T01:26:47;98747.66;;;17.60;99.16
63715;BME280;49858;48.956;9.076;2023-05-29T01:29:18;98748.44;;;17.65;98.70
63715;BME280;49858;48.956;9.076;2023-05-29T01:31:49;98744.94;;;17.35;99.48
63715;BME280;49858;48.956;9.076;2023-05-29T01:34:17;98738.88;;;17.73;97.53
63715;BME280;49858;48.956;9.076;2023-05-29T01:36:45;98741.25;;;17.78;97.25
63715;BME280;49858;48.956;9.076;2023-05-29T01:39:14;98748.75;;;17.95;95.50
63715;BME280;49858;48.956;9.076;2023-05-29T01:41:43;98742.88;;;17.75;96.40
63715;BME280;49858;48.956;9.076;2023-05-29T01:44:15;98745.91;;;18.06;94.43
63715;BME280;49858;48.956;9.076;2023-05-29T01:46:46;98742.50;;;17.59;95.28
63715;BME280;49858;48.956;9.076;2023-05-29T01:49:14;98756.47;;;17.41;98.93
63715;BME280;49858;48.956;9.076;2023-05-29T01:51:42;98754.84;;;17.51;97.23
63715;BME280;49858;48.956;9.076;2023-05-29T01:54:11;98747.72;;;17.39;97.73
63715;BME280;49858;48.956;9.076;2023-05-29T01:56:39;98742.19;;;17.28;99.15
63715;BME280;49858;48.956;9.076;2023-05-29T01:59:07;98744.94;;;17.46;97.43
63715;BME280;49858;48.956;9.076;2023-05-29T02:01:39;98750.88;;;17.52;97.39
63715;BME280;49858;48.956;9.076;2023-05-29T02:04:07;98746.47;;;17.58;96.42
63715;BME280;49858;48.956;9.076;2023-05-29T02:06:35;98747.59;;;17.85;94.25
63715;BME280;49858;48.956;9.076;2023-05-29T02:09:03;98743.25;;;17.81;94.55
63715;BME280;49858;48.956;9.076;2023-05-29T02:11:33;98750.41;;;17.71;96.29
63715;BME280;49858;48.956;9.076;2023-05-29T02:14:00;98743.69;;;17.54;96.97
63715;BME280;49858;48.956;9.076;2023-05-29T02:16:30;98750.06;;;17.51;96.54
63715;BME280;49858;48.956;9.076;2023-05-29T02:19:02;98756.91;;;16.90;100.00
63715;BME280;49858;48.956;9.076;2023-05-29T02:21:30;98753.28;;;17.46;99.09
63715;BME280;49858;48.956;9.076;2023-05-29T02:23:58;98746.56;;;17.11;100.00
63715;BME280;49858;48.956;9.076;2023-05-29T02:26:26;98745.78;;;17.00;100.00
63715;BME280;49858;48.956;9.076;2023-05-29T02:28:54;98743.72;;;17.51;97.88
63715;BME280;49858;48.956;9.076;2023-05-29T02:31:22;98746.06;;;17.59;96.41
63715;BME280;49858;48.956;9.076;2023-05-29T02:33:50;98740.16;;;17.43;97.78
63715;BME280;49858;48.956;9.076;2023-05-29T02:36:20;98743.28;;;17.63;96.08
63715;BME280;49858;48.956;9.076;2023-05-29T02:38:49;98742.94;;;17.47;97.30
63715;BME280;49858;48.956;9.076;2023-05-29T02:41:17;98744.84;;;17.71;95.58
63715;BME280;49858;48.956;9.076;2023-05-29T02:43:45;98732.91;;;17.81;94.70
63715;BME280;49858;48.956;9.076;2023-05-29T02:46:13;98727.50;;;17.31;99.24
63715;BME280;49858;48.956;9.076;2023-05-29T02:48:41;98736.19;;;17.41;97.73
63715;BME280;49858;48.956;9.076;2023-05-29T02:51:09;98732.66;;;17.22;99.75
63715;BME280;49858;48.956;9.076;2023-05-29T02:53:38;98735.44;;;17.19;100.00
63715;BME280;49858;48.956;9.076;2023-05-29T02:56:07;98739.78;;;17.41;97.86
63715;BME280;49858;48.956;9.076;2023-05-29T02:58:35;98735.84;;;17.31;99.20
63715;BME280;49858;48.956;9.076;2023-05-29T03:01:03;98737.81;;;17.17;100.00
63715;BME280;49858;48.956;9.076;2023-05-29T03:03:31;98734.22;;;17.41;98.51
63715;BME280;49858;48.956;9.076;2023-05-29T03:06:00;98734.19;;;17.55;98.28
63715;BME280;49858;48.956;9.076;2023-05-29T03:08:28;98738.06;;;17.72;97.24
63715;BME280;49858;48.956;9.076;2023-05-29T03:10:58;98733.75;;;17.60;97.54
63715;BME280;49858;48.956;9.076;2023-05-29T03:13:26;98743.31;;;17.45;99.26
63715;BME280;49858;48.956;9.076;2023-05-29T03:16:02;98744.97;;;17.25;99.18
63715;BME280;49858;48.956;9.076;2023-05-29T03:18:30;98749.34;;;16.83;100.00
63715;BME280;49858;48.956;9.076;2023-05-29T03:21:00;98746.94;;;16.67;100.00
63715;BME280;49858;48.956;9.076;2023-05-29T03:23:31;98748.19;;;16.77;100.00
63715;BME280;49858;48.956;9.076;2023-05-29T03:26:01;98743.81;;;16.76;100.00
63715;BME280;49858;48.956;9.076;2023-05-29T03:28:31;98736.66;;;17.14;99.71
63715;BME280;49858;48.956;9.076;2023-05-29T03:31:02;98740.19;;;16.65;100.00
63715;BME280;49858;48.956;9.076;2023-05-29T03:33:30;98735.88;;;16.99;100.00
63715;BME280;49858;48.956;9.076;2023-05-29T03:36:18;98732.31;;;16.99;100.00
63715;BME280;49858;48.956;9.076;2023-05-29T03:38:47;98731.91;;;17.00;100.00
63715;BME280;49858;48.956;9.076;2023-05-29T03:41:17;98739.44;;;16.75;100.00
63715;BME280;49858;48.956;9.076;2023-05-29T03:43:45;98737.06;;;16.91;100.00
63715;BME280;49858;48.956;9.076;2023-05-29T03:46:14;98737.44;;;17.11;99.06
63715;BME280;49858;48.956;9.076;2023-05-29T03:48:42;98753.72;;;16.73;100.00
63715;BME280;49858;48.956;9.076;2023-05-29T03:51:10;98746.16;;;17.02;99.61
63715;BME280;49858;48.956;9.076;2023-05-29T03:53:39;98755.31;;;17.03;99.29
63715;BME280;49858;48.956;9.076;2023-05-29T03:56:07;98754.50;;;16.67;100.00
63715;BME280;49858;48.956;9.076;2023-05-29T03:58:37;98751.75;;;16.81;100.00
63715;BME280;49858;48.956;9.076;2023-05-29T04:01:07;98752.94;;;16.98;100.00
63715;BME280;49858;48.956;9.076;2023-05-29T04:03:35;98752.16;;;17.04;100.00
63715;BME280;49858;48.956;9.076;2023-05-29T04:06:05;98756.50;;;16.91;99.72
63715;BME280;49858;48.956;9.076;2023-05-29T04:08:34;98762.06;;;17.02;100.00
63715;BME280;49858;48.956;9.076;2023-05-29T04:11:02;98758.88;;;16.71;100.00
63715;BME280;49858;48.956;9.076;2023-05-29T04:13:30;98760.84;;;16.67;100.00
63715;BME280;49858;48.956;9.076;2023-05-29T04:15:59;98765.22;;;16.61;100.00
63715;BME280;49858;48.956;9.076;2023-05-29T04:18:27;98773.97;;;16.88;100.00
63715;BME280;49858;48.956;9.076;2023-05-29T04:20:55;98776.31;;;17.22;99.60
63715;BME280;49858;48.956;9.076;2023-05-29T04:23:23;98777.53;;;17.21;99.64
63715;BME280;49858;48.956;9.076;2023-05-29T04:25:52;98779.50;;;17.42;97.48
63715;BME280;49858;48.956;9.076;2023-05-29T04:28:24;98781.91;;;17.32;99.43
63715;BME280;49858;48.956;9.076;2023-05-29T04:30:54;98788.97;;;17.55;97.43
63715;BME280;49858;48.956;9.076;2023-05-29T04:33:25;98800.56;;;17.10;100.00
63715;BME280;49858;48.956;9.076;2023-05-29T04:35:56;98795.78;;;17.22;100.00
63715;BME280;49858;48.956;9.076;2023-05-29T04:38:24;98797.38;;;17.30;100.00
63715;BME280;49858;48.956;9.076;2023-05-29T04:40:54;98800.16;;;17.26;99.65
63715;BME280;49858;48.956;9.076;2023-05-29T04:43:27;98793.78;;;17.44;99.12
63715;BME280;49858;48.956;9.076;2023-05-29T04:46:00;98797.78;;;17.32;100.00
63715;BME280;49858;48.956;9.076;2023-05-29T04:48:33;98800.53;;;17.39;100.00
63715;BME280;49858;48.956;9.076;2023-05-29T04:51:01;98795.72;;;17.72;98.68
63715;BME280;49858;48.956;9.076;2023-05-29T04:53:29;98807.66;;;17.76;98.28
63715;BME280;49858;48.956;9.076;2023-05-29T04:55:57;98810.91;;;17.14;100.00
63715;BME280;49858;48.956;9.076;2023-05-29T04:58:25;98802.94;;;17.30;100.00
63715;BME280;49858;48.956;9.076;2023-05-29T05:00:54;98820.00;;;17.39;100.00
63715;BME280;49858;48.956;9.076;2023-05-29T05:03:28;98816.78;;;17.69;99.44
63715;BME280;49858;48.956;9.076;2023-05-29T05:05:59;98824.28;;;17.97;97.34
63715;BME280;49858;48.956;9.076;2023-05-29T05:08:26;98819.78;;;18.25;96.18
63715;BME280;49858;48.956;9.076;2023-05-29T05:10:55;98818.97;;;18.35;95.40
63715;BME280;49858;48.956;9.076;2023-05-29T05:13:23;98818.06;;;18.49;95.67
63715;BME280;49858;48.956;9.076;2023-05-29T05:15:51;98828.44;;;18.48;95.87
63715;BME280;49858;48.956;9.076;2023-05-29T05:18:19;98820.81;;;18.59;93.39
63715;BME280;49858;48.956;9.076;2023-05-29T05:20:56;98825.50;;;17.89;100.00
63715;BME280;49858;48.956;9.076;2023-05-29T05:23:26;98829.88;;;17.90;100.00
63715;BME280;49858;48.956;9.076;2023-05-29T05:25:54;98829.13;;;17.79;99.85
63715;BME280;49858;48.956;9.076;2023-05-29T05:28:22;98830.25;;;17.92;98.83
63715;BME280;49858;48.956;9.076;2023-05-29T05:30:50;98823.91;;;17.92;100.00
63715;BME280;49858;48.956;9.076;2023-05-29T05:33:19;98832.66;;;17.94;99.97
63715;BME280;49858;48.956;9.076;2023-05-29T05:35:46;98836.53;;;18.21;97.21
63715;BME280;49858;48.956;9.076;2023-05-29T05:38:14;98839.00;;;17.98;98.03
63715;BME280;49858;48.956;9.076;2023-05-29T05:40:44;98843.41;;;17.81;97.98
63715;BME280;49858;48.956;9.076;2023-05-29T05:43:21;98853.34;;;17.85;100.00
63715;BME280;49858;48.956;9.076;2023-05-29T05:46:12;98854.88;;;18.01;100.00
63715;BME280;49858;48.956;9.076;2023-05-29T05:48:41;98854.91;;;17.94;99.41
63715;BME280;49858;48.956;9.076;2023-05-29T05:51:09;98858.13;;;17.88;99.82
63715;BME280;49858;48.956;9.076;2023-05-29T05:53:39;98861.28;;;17.94;98.90
63715;BME280;49858;48.956;9.076;2023-05-29T05:56:08;98860.47;;;17.94;99.34
63715;BME280;49858;48.956;9.076;2023-05-29T05:58:37;98863.69;;;17.81;99.08
63715;BME280;49858;48.956;9.076;2023-05-29T06:01:05;98868.78;;;18.08;98.94
63715;BME280;49858;48.956;9.076;2023-05-29T06:03:34;98871.19;;;18.02;100.00
63715;BME280;49858;48.956;9.076;2023-05-29T06:06:06;98871.53;;;18.26;99.75
63715;BME280;49858;48.956;9.076;2023-05-29T06:08:38;98873.47;;;18.32;100.00
63715;BME280;49858;48.956;9.076;2023-05-29T06:11:09;98879.09;;;18.14;100.00
63715;BME280;49858;48.956;9.076;2023-05-29T06:13:39;98872.81;;;17.64;100.00
63715;BME280;49858;48.956;9.076;2023-05-29T06:16:12;98878.78;;;17.84;100.00
63715;BME280;49858;48.956;9.076;2023-05-29T06:18:41;98881.94;;;17.72;100.00
63715;BME280;49858;48.956;9.076;2023-05-29T06:21:09;98886.28;;;18.01;100.00
63715;BME280;49858;48.956;9.076;2023-05-29T06:23:42;98876.72;;;18.09;100.00
63715;BME280;49858;48.956;9.076;2023-05-29T06:26:12;98895.63;;;18.64;98.81
63715;BME280;49858;48.956;9.076;2023-05-29T06:28:40;98891.41;;;18.21;100.00
63715;BME280;49858;48.956;9.076;2023-05-29T06:31:08;98901.63;;;18.49;99.28
63715;BME280;49858;48.956;9.076;2023-05-29T06:33:36;98905.19;;;18.56;100.00
63715;BME280;49858;48.956;9.076;2023-05-29T06:36:05;98903.56;;;18.66;100.00
63715;BME280;49858;48.956;9.076;2023-05-29T06:38:34;98896.00;;;18.63;100.00
63715;BME280;49858;48.956;9.076;2023-05-29T06:41:03;98906.66;;;18.89;99.73
63715;BME280;49858;48.956;9.076;2023-05-29T06:43:34;98905.19;;;19.30;98.25
63715;BME280;49858;48.956;9.076;2023-05-29T06:46:02;98908.63;;;18.96;98.92
63715;BME280;49858;48.956;9.076;2023-05-29T06:48:32;98907.09;;;19.44;96.21
63715;BME280;49858;48.956;9.076;2023-05-29T06:51:00;98911.28;;;19.14;97.46
63715;BME280;49858;48.956;9.076;2023-05-29T06:53:40;98917.53;;;18.59;100.00
63715;BME280;49858;48.956;9.076;2023-05-29T06:56:11;98921.94;;;19.30;98.32
63715;BME280;49858;48.956;9.076;2023-05-29T06:58:40;98917.00;;;18.89;100.00
63715;BME280;49858;48.956;9.076;2023-05-29T07:01:08;98921.09;;;19.33;99.79
63715;BME280;49858;48.956;9.076;2023-05-29T07:03:42;98917.56;;;19.81;95.88
63715;BME280;49858;48.956;9.076;2023-05-29T07:06:10;98910.22;;;19.49;96.80
63715;BME280;49858;48.956;9.076;2023-05-29T07:08:38;98919.06;;;19.37;98.35
63715;BME280;49858;48.956;9.076;2023-05-29T07:11:06;98916.56;;;19.98;96.00
63715;BME280;49858;48.956;9.076;2023-05-29T07:13:34;98919.75;;;20.00;95.98
63715;BME280;49858;48.956;9.076;2023-05-29T07:16:03;98923.66;;;19.69;98.45
63715;BME280;49858;48.956;9.076;2023-05-29T07:18:51;98920.97;;;19.47;100.00
63715;BME280;49858;48.956;9.076;2023-05-29T07:21:19;98913.25;;;20.79;91.79
63715;BME280;49858;48.956;9.076;2023-05-29T07:23:48;98910.72;;;21.18;89.64
63715;BME280;49858;48.956;9.076;2023-05-29T07:26:16;98915.63;;;21.38;87.79
63715;BME280;49858;48.956;9.076;2023-05-29T07:28:43;98921.22;;;22.08;83.04
63715;BME280;49858;48.956;9.076;2023-05-29T07:31:13;98917.16;;;21.42;86.10
63715;BME280;49858;48.956;9.076;2023-05-29T07:33:40;98918.53;;;22.25;79.72
63715;BME280;49858;48.956;9.076;2023-05-29T07:36:08;98914.75;;;22.55;77.85
63715;BME280;49858;48.956;9.076;2023-05-29T07:38:37;98910.25;;;22.77;78.80
63715;BME280;49858;48.956;9.076;2023-05-29T07:41:05;98917.47;;;21.72;83.04
63715;BME280;49858;48.956;9.076;2023-05-29T07:43:36;98923.78;;;22.23;81.08
63715;BME280;49858;48.956;9.076;2023-05-29T07:46:06;98924.53;;;22.03;82.56
63715;BME280;49858;48.956;9.076;2023-05-29T07:48:39;98924.00;;;21.11;85.93
63715;BME280;49858;48.956;9.076;2023-05-29T07:51:07;98920.06;;;22.06;84.03
63715;BME280;49858;48.956;9.076;2023-05-29T07:53:40;98911.00;;;23.17;75.90
63715;BME280;49858;48.956;9.076;2023-05-29T07:56:08;98917.50;;;23.31;77.03
63715;BME280;49858;48.956;9.076;2023-05-29T07:58:36;98921.50;;;22.97;77.31
63715;BME280;49858;48.956;9.076;2023-05-29T08:01:04;98915.75;;;22.25;82.72
63715;BME280;49858;48.956;9.076;2023-05-29T08:03:33;98922.97;;;22.02;82.55
63715;BME280;49858;48.956;9.076;2023-05-29T08:06:25;98916.47;;;22.29;81.47
63715;BME280;49858;48.956;9.076;2023-05-29T08:08:56;98921.03;;;23.35;76.99
63715;BME280;49858;48.956;9.076;2023-05-29T08:11:25;98928.44;;;24.23;73.17
63715;BME280;49858;48.956;9.076;2023-05-29T08:13:53;98921.44;;;23.98;72.19
63715;BME280;49858;48.956;9.076;2023-05-29T08:16:22;98914.00;;;23.59;73.34
63715;BME280;49858;48.956;9.076;2023-05-29T08:18:49;98914.00;;;24.66;64.17
63715;BME280;49858;48.956;9.076;2023-05-29T08:21:17;98920.06;;;22.89;70.86
63715;BME280;49858;48.956;9.076;2023-05-29T08:23:46;98921.25;;;23.08;74.88
63715;BME280;49858;48.956;9.076;2023-05-29T08:26:14;98911.91;;;23.63;72.34
63715;BME280;49858;48.956;9.076;2023-05-29T08:28:42;98916.56;;;23.70;75.37
63715;BME280;49858;48.956;9.076;2023-05-29T08:31:10;98919.53;;;24.83;64.02
63715;BME280;49858;48.956;9.076;2023-05-29T08:33:38;98917.56;;;25.09;65.48
63715;BME280;49858;48.956;9.076;2023-05-29T08:36:06;98923.63;;;25.07;65.24
63715;BME280;49858;48.956;9.076;2023-05-29T08:38:37;98917.91;;;25.36;67.26
63715;BME280;49858;48.956;9.076;2023-05-29T08:41:07;98920.81;;;24.07;71.71
63715;BME280;49858;48.956;9.076;2023-05-29T08:43:35;98922.34;;;24.41;71.34
63715;BME280;49858;48.956;9.076;2023-05-29T08:46:04;98911.56;;;23.78;69.32
63715;BME280;49858;48.956;9.076;2023-05-29T08:48:32;98919.69;;;22.87;73.92
63715;BME280;49858;48.956;9.076;2023-05-29T08:51:04;98919.41;;;23.17;70.77
63715;BME280;49858;48.956;9.076;2023-05-29T08:53:34;98910.56;;;24.01;71.54
63715;BME280;49858;48.956;9.076;2023-05-29T08:56:02;98913.28;;;25.55;62.34
63715;BME280;49858;48.956;9.076;2023-05-29T08:58:33;98917.31;;;26.14;62.02
63715;BME280;49858;48.956;9.076;2023-05-29T09:01:01;98906.00;;;26.27;58.31
63715;BME280;49858;48.956;9.076;2023-05-29T09:03:29;98914.81;;;26.51;58.64
63715;BME280;49858;48.956;9.076;2023-05-29T09:05:58;98922.75;;;24.68;67.51
63715;BME280;49858;48.956;9.076;2023-05-29T09:08:26;98919.03;;;25.39;64.98
63715;BME280;49858;48.956;9.076;2023-05-29T09:10:54;98914.53;;;26.58;59.73
63715;BME280;49858;48.956;9.076;2023-05-29T09:13:24;98912.97;;;26.79;59.46
63715;BME280;49858;48.956;9.076;2023-05-29T09:15:57;98919.06;;;26.56;59.03
63715;BME280;49858;48.956;9.076;2023-05-29T09:18:29;98917.06;;;27.09;56.92
63715;BME280;49858;48.956;9.076;2023-05-29T09:20:57;98927.34;;;27.03;60.36
63715;BME280;49858;48.956;9.076;2023-05-29T09:23:28;98913.16;;;27.65;55.55
63715;BME280;49858;48.956;9.076;2023-05-29T09:25:57;98915.50;;;27.48;55.76
63715;BME280;49858;48.956;9.076;2023-05-29T09:28:25;98925.16;;;27.29;52.97
63715;BME280;49858;48.956;9.076;2023-05-29T09:30:54;98917.50;;;26.55;57.11
63715;BME280;49858;48.956;9.076;2023-05-29T09:33:25;98923.91;;;27.30;51.61
63715;BME280;49858;48.956;9.076;2023-05-29T09:35:53;98918.00;;;27.56;50.82
63715;BME280;49858;48.956;9.076;2023-05-29T09:38:22;98919.53;;;28.80;49.68
63715;BME280;49858;48.956;9.076;2023-05-29T09:41:09;98924.25;;;26.57;53.73
63715;BME280;49858;48.956;9.076;2023-05-29T09:43:38;98921.63;;;28.42;50.04
63715;BME280;49858;48.956;9.076;2023-05-29T09:46:07;98911.69;;;27.42;54.11
63715;BME280;49858;48.956;9.076;2023-05-29T09:48:36;98913.53;;;28.87;46.90
63715;BME280;49858;48.956;9.076;2023-05-29T09:51:05;98909.41;;;26.88;48.98
63715;BME280;49858;48.956;9.076;2023-05-29T09:53:32;98911.31;;;29.00;45.54
63715;BME280;49858;48.956;9.076;2023-05-29T09:56:02;98914.97;;;27.99;45.12
63715;BME280;49858;48.956;9.076;2023-05-29T09:58:32;98911.94;;;29.04;45.00
63715;BME280;49858;48.956;9.076;2023-05-29T10:01:02;98898.53;;;30.58;39.72
63715;BME280;49858;48.956;9.076;2023-05-29T10:03:29;98888.50;;;29.03;41.90
63715;BME280;49858;48.956;9.076;2023-05-29T10:06:04;98898.81;;;29.58;40.48
63715;BME280;49858;48.956;9.076;2023-05-29T10:08:35;98887.34;;;28.40;43.08
63715;BME280;49858;48.956;9.076;2023-05-29T10:11:05;98885.41;;;29.83;41.50
63715;BME280;49858;48.956;9.076;2023-05-29T10:13:38;98877.22;;;28.85;42.18
63715;BME280;49858;48.956;9.076;2023-05-29T10:16:09;98873.53;;;29.93;39.17
63715;BME280;49858;48.956;9.076;2023-05-29T10:18:42;98878.72;;;31.37;36.02
63715;BME280;49858;48.956;9.076;2023-05-29T10:21:12;98871.47;;;31.36;36.30
63715;BME280;49858;48.956;9.076;2023-05-29T10:23:44;98875.81;;;30.04;37.08
63715;BME280;49858;48.956;9.076;2023-05-29T10:26:15;98868.75;;;30.23;37.43
63715;BME280;49858;48.956;9.076;2023-05-29T10:28:54;98867.00;;;30.41;35.90
63715;BME280;49858;48.956;9.076;2023-05-29T10:31:26;98883.75;;;29.10;37.29
63715;BME280;49858;48.956;9.076;2023-05-29T10:34:07;98878.34;;;29.21;37.49
63715;BME280;49858;48.956;9.076;2023-05-29T10:36:43;98873.81;;;30.73;34.59
63715;BME280;49858;48.956;9.076;2023-05-29T10:39:12;98883.13;;;29.72;37.66
63715;BME280;49858;48.956;9.076;2023-05-29T10:41:40;98879.50;;;31.38;34.25
63715;BME280;49858;48.956;9.076;2023-05-29T10:44:38;98878.22;;;30.20;34.54
63715;BME280;49858;48.956;9.076;2023-05-29T10:47:07;98879.13;;;29.54;36.94
63715;BME280;49858;48.956;9.076;2023-05-29T10:49:39;98867.56;;;29.34;36.56
63715;BME280;49858;48.956;9.076;2023-05-29T10:52:10;98868.03;;;29.90;33.96
63715;BME280;49858;48.956;9.076;2023-05-29T10:54:50;98870.31;;;30.39;34.52
63715;BME280;49858;48.956;9.076;2023-05-29T10:57:21;98867.94;;;29.84;34.46
63715;BME280;49858;48.956;9.076;2023-05-29T10:59:58;98874.81;;;29.02;36.04
63715;BME280;49858;48.956;9.076;2023-05-29T11:02:27;98881.13;;;28.97;35.59
63715;BME280;49858;48.956;9.076;2023-05-29T11:05:05;98871.25;;;29.49;33.63
63715;BME280;49858;48.956;9.076;2023-05-29T11:07:50;98874.25;;;28.80;38.79
63715;BME280;49858;48.956;9.076;2023-05-29T11:10:41;98869.75;;;29.72;37.15
63715;BME280;49858;48.956;9.076;2023-05-29T11:13:11;98873.81;;;30.19;34.42
63715;BME280;49858;48.956;9.076;2023-05-29T11:15:38;98870.53;;;30.95;33.60
63715;BME280;49858;48.956;9.076;2023-05-29T11:18:07;98859.91;;;31.40;30.58
63715;BME280;49858;48.956;9.076;2023-05-29T11:20:37;98859.00;;;31.69;30.73
63715;BME280;49858;48.956;9.076;2023-05-29T11:23:06;98871.69;;;32.35;29.35
63715;BME280;49858;48.956;9.076;2023-05-29T11:25:36;98872.88;;;33.32;28.82
63715;BME280;49858;48.956;9.076;2023-05-29T11:28:04;98872.09;;;31.81;30.61
63715;BME280;49858;48.956;9.076;2023-05-29T11:30:42;98866.47;;;33.43;27.75
63715;BME280;49858;48.956;9.076;2023-05-29T11:33:19;98870.78;;;33.32;28.02
63715;BME280;49858;48.956;9.076;2023-05-29T11:35:50;98864.47;;;32.60;29.59
63715;BME280;49858;48.956;9.076;2023-05-29T11:38:23;98855.41;;;33.56;26.28
63715;BME280;49858;48.956;9.076;2023-05-29T11:40:52;98857.06;;;31.60;27.74
63715;BME280;49858;48.956;9.076;2023-05-29T11:43:21;98864.16;;;31.29;28.76
63715;BME280;49858;48.956;9.076;2023-05-29T11:45:49;98868.72;;;32.44;29.77
63715;BME280;49858;48.956;9.076;2023-05-29T11:48:17;98870.91;;;32.54;28.35
63715;BME280;49858;48.956;9.076;2023-05-29T11:50:45;98861.78;;;35.15;24.04
63715;BME280;49858;48.956;9.076;2023-05-29T11:53:13;98867.75;;;33.04;27.30
63715;BME280;49858;48.956;9.076;2023-05-29T11:55:43;98850.00;;;35.64;22.23
63715;BME280;49858;48.956;9.076;2023-05-29T11:58:10;98863.03;;;35.37;24.15
63715;BME280;49858;48.956;9.076;2023-05-29T12:00:39;98860.19;;;33.81;25.14
63715;BME280;49858;48.956;9.076;2023-05-29T12:03:08;98858.47;;;32.83;25.86
63715;BME280;49858;48.956;9.076;2023-05-29T12:05:44;98860.72;;;32.74;25.25
63715;BME280;49858;48.956;9.076;2023-05-29T12:08:13;98860.19;;;33.81;24.60
63715;BME280;49858;48.956;9.076;2023-05-29T12:10:47;98852.91;;;34.57;24.00
63715;BME280;49858;48.956;9.076;2023-05-29T12:13:18;98852.50;;;35.90;21.81
63715;BME280;49858;48.956;9.076;2023-05-29T12:15:48;98852.13;;;34.62;23.90
63715;BME280;49858;48.956;9.076;2023-05-29T12:18:17;98857.34;;;34.69;24.46
63715;BME280;49858;48.956;9.076;2023-05-29T12:20:45;98857.63;;;35.11;23.95
63715;BME280;49858;48.956;9.076;2023-05-29T12:23:13;98861.72;;;34.48;23.81
63715;BME280;49858;48.956;9.076;2023-05-29T12:25:44;98857.28;;;33.65;23.99
63715;BME280;49858;48.956;9.076;2023-05-29T12:28:17;98861.75;;;33.82;24.95
63715;BME280;49858;48.956;9.076;2023-05-29T12:30:47;98864.38;;;33.06;25.63
63715;BME280;49858;48.956;9.076;2023-05-29T12:33:25;98864.00;;;34.21;22.91
63715;BME280;49858;48.956;9.076;2023-05-29T12:35:54;98851.88;;;34.66;22.98
63715;BME280;49858;48.956;9.076;2023-05-29T12:38:28;98856.81;;;34.76;22.30
63715;BME280;49858;48.956;9.076;2023-05-29T12:40:56;98849.28;;;34.84;22.38
63715;BME280;49858;48.956;9.076;2023-05-29T12:43:26;98863.00;;;33.70;24.10
63715;BME280;49858;48.956;9.076;2023-05-29T12:45:54;98861.47;;;33.32;23.49
63715;BME280;49858;48.956;9.076;2023-05-29T12:48:26;98867.16;;;33.69;23.07
63715;BME280;49858;48.956;9.076;2023-05-29T12:51:03;98848.78;;;34.86;21.96
63715;BME280;49858;48.956;9.076;2023-05-29T12:53:33;98853.56;;;33.53;22.91
63715;BME280;49858;48.956;9.076;2023-05-29T12:56:01;98856.03;;;32.71;23.89
63715;BME280;49858;48.956;9.076;2023-05-29T12:58:32;98852.50;;;33.99;22.41
63715;BME280;49858;48.956;9.076;2023-05-29T13:00:59;98857.22;;;32.12;23.82
63715;BME280;49858;48.956;9.076;2023-05-29T13:03:27;98857.16;;;32.53;23.81
63715;BME280;49858;48.956;9.076;2023-05-29T13:05:55;98856.47;;;34.24;22.54
63715;BME280;49858;48.956;9.076;2023-05-29T13:08:25;98848.50;;;35.23;20.86
63715;BME280;49858;48.956;9.076;2023-05-29T13:10:53;98837.56;;;34.49;20.78
63715;BME280;49858;48.956;9.076;2023-05-29T13:13:21;98848.50;;;34.56;20.43